Time;durP1;ratioP1;P1;durP2;ratioP2;P2;SDS_P1;SDS_P2;PMS_P1;PMS_P2;Temp;Humidity;BMP_temperature;BMP_pressure;BME280_temperature;BME280_humidity;BME280_pressure;Samples;Min_cycle;Max_cycle;Signal;HPM_P1;HPM_P2
2021/05/21 00:00:32;;;;;;;;;;;;;;;8.08;54.36;100736.45;1724053;82;20289;-73
2021/05/21 00:03:03;;;;;;;;;;;;;;;8.05;54.39;100730.88;1726764;82;20570;-73
2021/05/21 00:05:29;;;;;;;;;;;;;;;8.05;54.43;100733.88;1735253;81;20274;-73
2021/05/21 00:07:56;;;;;;;;;;;;;;;8.02;54.49;100728.75;1737896;82;20636;-73
2021/05/21 00:10:22;;;;;;;;;;;;;;;8.01;54.59;100729.17;1748903;81;21086;-73
2021/05/21 00:12:48;;;;;;;;;;;;;;;8.02;54.69;100722.30;1734823;82;20177;-73
2021/05/21 00:15:20;;;;;;;;;;;;;;;8.04;54.74;100724.44;1706621;82;20169;-73
2021/05/21 00:17:46;;;;;;;;;;;;;;;8.05;54.85;100723.16;1715609;82;20513;-73
2021/05/21 00:20:13;;;;;;;;;;;;;;;8.07;54.88;100716.70;1695152;83;103878;-73
2021/05/21 00:22:40;;;;;;;;;;;;;;;8.07;54.89;100725.29;1726261;82;20628;-73
2021/05/21 00:25:07;;;;;;;;;;;;;;;8.08;55.04;100720.56;1720295;82;20216;-73
2021/05/21 00:27:33;;;;;;;;;;;;;;;8.10;55.05;100717.55;1727198;81;20467;-73
2021/05/21 00:29:59;;;;;;;;;;;;;;;8.09;55.02;100715.84;1729377;81;20201;-73
2021/05/21 00:32:28;;;;;;;;;;;;;;;8.10;55.10;100721.84;1741407;81;20790;-73
2021/05/21 00:34:54;;;;;;;;;;;;;;;8.10;55.19;100720.12;1738696;81;20518;-73
2021/05/21 00:37:20;;;;;;;;;;;;;;;8.09;55.29;100713.70;1718546;82;20287;-73
2021/05/21 00:39:46;;;;;;;;;;;;;;;8.09;55.40;100716.27;1730031;81;20240;-73
2021/05/21 00:42:12;;;;;;;;;;;;;;;8.10;55.43;100714.12;1734529;81;20795;-73
2021/05/21 00:44:38;;;;;;;;;;;;;;;8.12;55.50;100711.11;1734950;81;20612;-73
2021/05/21 00:47:04;;;;;;;;;;;;;;;8.15;55.59;100712.38;1732038;82;20536;-73
2021/05/21 00:49:30;;;;;;;;;;;;;;;8.17;55.64;100708.08;1731189;81;20205;-73
2021/05/21 00:51:56;;;;;;;;;;;;;;;8.19;55.73;100699.91;1737148;81;21089;-73
2021/05/21 00:54:22;;;;;;;;;;;;;;;8.19;55.90;100699.48;1724910;81;20269;-73
2021/05/21 00:56:48;;;;;;;;;;;;;;;8.22;55.96;100703.33;1722520;81;20534;-73
2021/05/21 00:59:16;;;;;;;;;;;;;;;8.19;56.05;100703.78;1721500;81;20810;-73
2021/05/21 01:01:44;;;;;;;;;;;;;;;8.19;56.09;100697.34;1732876;81;20174;-73
2021/05/21 01:04:10;;;;;;;;;;;;;;;8.20;56.09;100697.77;1718406;81;20158;-73
2021/05/21 01:06:36;;;;;;;;;;;;;;;8.21;56.12;100696.47;1731125;81;20249;-74
2021/05/21 01:09:02;;;;;;;;;;;;;;;8.23;56.11;100693.88;1746063;81;20274;-73
2021/05/21 01:11:28;;;;;;;;;;;;;;;8.22;56.20;100690.45;1752876;81;20185;-73
2021/05/21 01:13:55;;;;;;;;;;;;;;;8.20;56.20;100690.03;1737935;81;20556;-73
2021/05/21 01:16:21;;;;;;;;;;;;;;;8.19;56.23;100689.61;1735035;81;20215;-73
2021/05/21 01:18:47;;;;;;;;;;;;;;;8.19;56.24;100680.16;1737155;81;20240;-73
2021/05/21 01:21:13;;;;;;;;;;;;;;;8.18;56.28;100686.61;1724139;81;20527;-73
2021/05/21 01:23:39;;;;;;;;;;;;;;;8.15;56.38;100681.48;1731920;81;20344;-73
2021/05/21 01:26:05;;;;;;;;;;;;;;;8.12;56.45;100675.05;1735661;81;20252;-73
2021/05/21 01:28:31;;;;;;;;;;;;;;;8.10;56.48;100678.06;1720677;81;20226;-73
2021/05/21 01:30:57;;;;;;;;;;;;;;;8.06;56.54;100671.22;1738518;81;20630;-73
2021/05/21 01:33:24;;;;;;;;;;;;;;;8.04;56.61;100668.65;1721769;81;20297;-73
2021/05/21 01:35:51;;;;;;;;;;;;;;;8.02;56.61;100668.23;1716526;81;20314;-73
2021/05/21 01:38:17;;;;;;;;;;;;;;;7.96;56.64;100671.26;1727715;81;20266;-73
2021/05/21 01:40:45;;;;;;;;;;;;;;;7.94;56.73;100668.27;1717802;82;20624;-73
2021/05/21 01:43:12;;;;;;;;;;;;;;;7.93;56.81;100665.27;1722045;81;20274;-73
2021/05/21 01:45:39;;;;;;;;;;;;;;;7.91;56.84;100655.41;1719757;81;20270;-73
2021/05/21 01:48:06;;;;;;;;;;;;;;;7.90;56.88;100659.70;1713912;81;20226;-73
2021/05/21 01:50:32;;;;;;;;;;;;;;;7.85;56.97;100650.28;1695770;81;20290;-73
2021/05/21 01:52:59;;;;;;;;;;;;;;;7.76;56.97;100655.06;1736606;81;20274;-73
2021/05/21 01:55:25;;;;;;;;;;;;;;;7.71;57.10;100649.08;1721077;81;20553;-73
2021/05/21 01:57:51;;;;;;;;;;;;;;;7.69;57.19;100648.23;1729669;81;20202;-73
2021/05/21 02:00:18;;;;;;;;;;;;;;;7.63;57.24;100642.67;1724729;81;20401;-73
2021/05/21 02:02:45;;;;;;;;;;;;;;;7.62;57.21;100640.95;1721666;81;20601;-73
2021/05/21 02:05:11;;;;;;;;;;;;;;;7.62;57.31;100637.10;1720306;81;20246;-73
2021/05/21 02:07:37;;;;;;;;;;;;;;;7.63;57.31;100634.09;1731354;81;20277;-73
2021/05/21 02:10:06;;;;;;;;;;;;;;;7.64;57.35;100628.09;1704971;81;20304;-73
2021/05/21 02:12:34;;;;;;;;;;;;;;;7.64;57.39;100621.66;1680000;84;20261;-73
2021/05/21 02:15:02;;;;;;;;;;;;;;;7.61;57.41;100614.80;1712106;81;20209;-73
2021/05/21 02:17:28;;;;;;;;;;;;;;;7.62;57.41;100616.52;1728586;81;20214;-73
2021/05/21 02:19:59;;;;;;;;;;;;;;;7.62;57.48;100616.52;1727554;81;20224;-73
2021/05/21 02:22:26;;;;;;;;;;;;;;;7.61;57.56;100616.09;1713546;81;20174;-73
2021/05/21 02:24:54;;;;;;;;;;;;;;;7.58;57.68;100604.95;1730685;81;20184;-73
2021/05/21 02:27:21;;;;;;;;;;;;;;;7.56;57.71;100598.95;1726343;83;20235;-73
2021/05/21 02:29:47;;;;;;;;;;;;;;;7.58;57.77;100600.66;1707610;83;20211;-73
2021/05/21 02:32:13;;;;;;;;;;;;;;;7.60;57.79;100596.80;1720012;82;20195;-73
2021/05/21 02:34:43;;;;;;;;;;;;;;;7.59;57.82;100597.66;1713400;83;20186;-73
2021/05/21 02:37:09;;;;;;;;;;;;;;;7.59;57.83;100594.66;1720589;83;20193;-73
2021/05/21 02:39:35;;;;;;;;;;;;;;;7.61;57.92;100590.78;1723138;83;20281;-73
2021/05/21 02:42:01;;;;;;;;;;;;;;;7.61;58.02;100586.92;1712679;83;20220;-73
2021/05/21 02:44:27;;;;;;;;;;;;;;;7.63;58.07;100586.05;1711863;83;20489;-73
2021/05/21 02:47:12;;;;;;;;;;;;;;;7.66;58.12;100583.91;1713763;82;20242;-73
2021/05/21 02:49:37;;;;;;;;;;;;;;;7.72;58.18;100585.16;1722842;83;20220;-73
2021/05/21 02:52:04;;;;;;;;;;;;;;;7.76;58.34;100587.29;1712588;83;20197;-73
2021/05/21 02:54:31;;;;;;;;;;;;;;;7.77;58.34;100579.99;1712578;83;20289;-73
2021/05/21 02:56:57;;;;;;;;;;;;;;;7.76;58.42;100579.56;1715300;83;20274;-73
2021/05/21 02:59:23;;;;;;;;;;;;;;;7.81;58.50;100572.64;1720919;83;20230;-73
2021/05/21 03:01:49;;;;;;;;;;;;;;;7.85;58.55;100571.33;1714503;83;20215;-73
2021/05/21 03:04:15;;;;;;;;;;;;;;;7.91;58.67;100569.16;1710769;83;20282;-73
2021/05/21 03:06:41;;;;;;;;;;;;;;;7.97;58.72;100561.40;1705144;83;20514;-73
2021/05/21 03:09:07;;;;;;;;;;;;;;;8.00;58.77;100553.66;1706459;83;20271;-73
2021/05/21 03:11:33;;;;;;;;;;;;;;;8.07;58.84;100557.05;1711163;83;20312;-73
2021/05/21 03:13:59;;;;;;;;;;;;;;;8.14;58.90;100550.98;1722367;83;20222;-73
2021/05/21 03:16:25;;;;;;;;;;;;;;;8.18;58.88;100544.95;1716710;82;20270;-73
2021/05/21 03:18:51;;;;;;;;;;;;;;;8.24;58.97;100551.34;1703563;83;20283;-73
2021/05/21 03:21:18;;;;;;;;;;;;;;;8.27;58.98;100554.75;1714704;83;20188;-73
2021/05/21 03:23:48;;;;;;;;;;;;;;;8.33;59.04;100553.85;1702368;83;20302;-73
2021/05/21 03:26:14;;;;;;;;;;;;;;;8.39;59.11;100547.80;1722844;82;20290;-73
2021/05/21 03:28:40;;;;;;;;;;;;;;;8.43;59.12;100553.34;1708175;81;20200;-73
2021/05/21 03:31:07;;;;;;;;;;;;;;;8.48;59.18;100547.29;1714932;82;20325;-73
2021/05/21 03:33:33;;;;;;;;;;;;;;;8.56;59.26;100549.37;1726075;82;20256;-74
2021/05/21 03:35:59;;;;;;;;;;;;;;;8.65;59.28;100543.72;1721071;82;20213;-73
2021/05/21 03:38:29;;;;;;;;;;;;;;;8.73;59.39;100543.20;1715945;82;20337;-73
2021/05/21 03:40:55;;;;;;;;;;;;;;;8.82;59.42;100545.27;1724655;82;20458;-73
2021/05/21 03:43:21;;;;;;;;;;;;;;;8.90;59.43;100539.56;1716105;82;20276;-73
2021/05/21 03:45:47;;;;;;;;;;;;;;;8.97;59.52;100542.93;1720519;82;20271;-74
2021/05/21 03:48:15;;;;;;;;;;;;;;;9.04;59.53;100544.58;1713111;82;20270;-74
2021/05/21 03:50:41;;;;;;;;;;;;;;;9.12;59.55;100540.62;1713314;82;20282;-74
2021/05/21 03:53:08;;;;;;;;;;;;;;;9.20;59.56;100540.96;1725609;82;20313;-74
2021/05/21 03:55:34;;;;;;;;;;;;;;;9.26;59.64;100542.17;1715954;82;20272;-73
2021/05/21 03:58:00;;;;;;;;;;;;;;;9.33;59.68;100537.80;1710772;82;20237;-74
2021/05/21 04:00:26;;;;;;;;;;;;;;;9.39;59.69;100531.24;1712642;82;20221;-74
2021/05/21 04:02:53;;;;;;;;;;;;;;;9.44;59.78;100528.60;1709042;82;20231;-74
2021/05/21 04:05:21;;;;;;;;;;;;;;;9.45;59.52;100526.00;1720440;82;20289;-74
2021/05/21 04:07:49;;;;;;;;;;;;;;;9.44;59.80;100528.17;1720431;82;20295;-73
2021/05/21 04:10:15;;;;;;;;;;;;;;;9.47;59.92;100525.98;1720913;82;20205;-73
2021/05/21 04:12:42;;;;;;;;;;;;;;;9.52;59.94;100525.49;1715320;82;20247;-73
2021/05/21 04:15:09;;;;;;;;;;;;;;;9.58;60.02;100526.70;1719591;82;20165;-73
2021/05/21 04:17:35;;;;;;;;;;;;;;;9.66;60.07;100521.00;1717786;82;20172;-73
2021/05/21 04:20:01;;;;;;;;;;;;;;;9.74;60.08;100514.44;1719168;83;20241;-73
2021/05/21 04:22:27;;;;;;;;;;;;;;;9.81;60.15;100513.04;1707947;81;20211;-77
2021/05/21 04:24:53;;;;;;;;;;;;;;;9.89;60.18;100512.45;1712307;81;20191;-74
2021/05/21 04:27:19;;;;;;;;;;;;;;;9.97;60.23;100505.89;1717403;82;20186;-73
2021/05/21 04:29:48;;;;;;;;;;;;;;;10.07;60.12;100506.16;1717323;82;20163;-73
2021/05/21 04:32:14;;;;;;;;;;;;;;;10.10;60.29;100511.28;1713396;81;20196;-73
2021/05/21 04:34:42;;;;;;;;;;;;;;;10.16;60.26;100504.73;1717372;82;20170;-74
2021/05/21 04:37:08;;;;;;;;;;;;;;;10.22;60.33;100495.62;1704449;83;20190;-74
2021/05/21 04:39:34;;;;;;;;;;;;;;;10.32;60.41;100501.92;1716497;82;20317;-74
2021/05/21 04:42:00;;;;;;;;;;;;;;;10.37;60.41;100498.83;1719756;81;20500;-74
2021/05/21 04:44:29;;;;;;;;;;;;;;;10.43;60.46;100502.13;1704421;83;20212;-74
2021/05/21 04:46:55;;;;;;;;;;;;;;;10.50;60.39;100498.56;1716934;82;21028;-74
2021/05/21 04:49:35;;;;;;;;;;;;;;;10.57;60.53;100491.55;1723837;81;20311;-74
2021/05/21 04:52:07;;;;;;;;;;;;;;;10.63;60.53;100491.44;1716026;82;20255;-74
2021/05/21 04:54:34;;;;;;;;;;;;;;;10.69;60.56;100492.62;1708283;83;20331;-74
2021/05/21 04:57:01;;;;;;;;;;;;;;;10.78;60.72;100476.94;1720503;83;20243;-74
2021/05/21 04:59:27;;;;;;;;;;;;;;;10.87;60.59;100477.20;1719954;81;20326;-74
2021/05/21 05:01:54;;;;;;;;;;;;;;;10.94;60.56;100480.05;1719415;81;20294;-74
2021/05/21 05:04:20;;;;;;;;;;;;;;;11.03;60.59;100477.73;1719097;82;20286;-74
2021/05/21 05:06:46;;;;;;;;;;;;;;;11.13;60.52;100479.25;1717564;83;20212;-74
2021/05/21 05:09:18;;;;;;;;;;;;;;;11.26;60.77;100478.11;1706818;81;20306;-74
2021/05/21 05:11:44;;;;;;;;;;;;;;;11.40;60.76;100478.67;1715895;81;20550;-74
2021/05/21 05:14:11;;;;;;;;;;;;;;;11.53;60.66;100476.20;1705194;81;20253;-74
2021/05/21 05:16:40;;;;;;;;;;;;;;;11.67;60.69;100478.48;1703891;81;20275;-74
2021/05/21 05:19:06;;;;;;;;;;;;;;;11.82;60.57;100462.62;1717305;81;20267;-74
2021/05/21 05:21:35;;;;;;;;;;;;;;;11.91;60.44;100466.30;1713975;81;20285;-74
2021/05/21 05:24:02;;;;;;;;;;;;;;;11.98;60.39;100458.34;1719489;82;20286;-74
2021/05/21 05:26:29;;;;;;;;;;;;;;;12.03;60.41;100451.30;1706944;81;20173;-74
2021/05/21 05:28:58;;;;;;;;;;;;;;;12.09;60.44;100453.75;1712701;81;20226;-74
2021/05/21 05:31:24;;;;;;;;;;;;;;;12.18;60.60;100445.75;1723521;82;20206;-74
2021/05/21 05:33:50;;;;;;;;;;;;;;;12.28;60.46;100448.52;1717487;81;20282;-74
2021/05/21 05:36:19;;;;;;;;;;;;;;;12.34;60.42;100449.66;1715501;81;20217;-74
2021/05/21 05:38:45;;;;;;;;;;;;;;;12.41;60.52;100444.72;1720639;81;20220;-74
2021/05/21 05:41:11;;;;;;;;;;;;;;;12.50;60.40;100450.92;1706463;82;20236;-74
2021/05/21 05:43:37;;;;;;;;;;;;;;;12.50;60.38;100450.08;1722937;81;20505;-74
2021/05/21 05:46:04;;;;;;;;;;;;;;;12.56;60.47;100448.61;1728973;81;20312;-74
2021/05/21 05:48:33;;;;;;;;;;;;;;;12.69;60.51;100449.14;1723211;81;20298;-74
2021/05/21 05:51:00;;;;;;;;;;;;;;;12.83;60.50;100432.75;1728231;81;20299;-74
2021/05/21 05:53:26;;;;;;;;;;;;;;;13.10;60.82;100432.38;1718839;81;20500;-74
2021/05/21 05:55:51;;;;;;;;;;;;;;;13.51;60.82;100425.98;1724958;81;20202;-74
2021/05/21 05:58:17;;;;;;;;;;;;;;;14.17;61.12;100421.59;1723439;81;20509;-74
2021/05/21 06:00:44;;;;;;;;;;;;;;;15.14;60.93;100420.28;1721736;81;20271;-74
2021/05/21 06:03:11;;;;;;;;;;;;;;;15.63;59.99;100422.30;1719651;81;20358;-73
2021/05/21 06:05:38;;;;;;;;;;;;;;;15.85;59.76;100419.22;1729385;81;20289;-74
2021/05/21 06:08:06;;;;;;;;;;;;;;;16.12;59.86;100414.59;1718888;81;20281;-74
2021/05/21 06:10:32;;;;;;;;;;;;;;;16.38;59.56;100413.04;1724879;81;20194;-74
2021/05/21 06:13:02;;;;;;;;;;;;;;;16.44;59.29;100402.34;1725357;81;20190;-74
2021/05/21 06:15:28;;;;;;;;;;;;;;;16.57;59.26;100402.65;1722880;82;20234;-74
2021/05/21 06:17:55;;;;;;;;;;;;;;;16.58;59.06;100398.28;1714824;81;20500;-74
2021/05/21 06:20:24;;;;;;;;;;;;;;;16.72;59.21;100388.92;1723867;81;20198;-74
2021/05/21 06:22:50;;;;;;;;;;;;;;;17.00;59.28;100390.28;1724087;82;20834;-74
2021/05/21 06:25:38;;;;;;;;;;;;;;;17.19;59.00;100385.87;1721864;81;20651;-75
2021/05/21 06:27:48;;;;;;;;;;;;;;;17.37;58.79;100381.55;1715033;81;20194;-74
2021/05/21 06:30:15;;;;;;;;;;;;;;;17.31;58.55;100373.99;1715611;81;20169;-74
2021/05/21 06:32:42;;;;;;;;;;;;;;;17.35;58.46;100380.77;1724416;81;20206;-74
2021/05/21 06:35:09;;;;;;;;;;;;;;;17.67;58.84;100380.10;1726119;82;20166;-74
2021/05/21 06:37:36;;;;;;;;;;;;;;;18.25;58.86;100379.75;1721540;81;20227;-74
2021/05/21 06:40:04;;;;;;;;;;;;;;;18.79;58.46;100373.39;1718160;81;20299;-74
2021/05/21 06:42:30;;;;;;;;;;;;;;;19.08;58.17;100363.11;1723794;82;20162;-74
2021/05/21 06:44:58;;;;;;;;;;;;;;;19.35;58.10;100362.02;1726172;81;20562;-74
2021/05/21 06:47:25;;;;;;;;;;;;;;;19.67;57.73;100354.97;1719701;81;20199;-74
2021/05/21 06:49:51;;;;;;;;;;;;;;;19.74;57.37;100353.69;1715874;81;20221;-74
2021/05/21 06:52:17;;;;;;;;;;;;;;;19.72;57.25;100350.30;1724793;81;20242;-74
2021/05/21 06:54:45;;;;;;;;;;;;;;;19.77;57.48;100342.52;1713433;81;20183;-74
2021/05/21 06:57:11;;;;;;;;;;;;;;;19.88;57.40;100346.29;1723127;81;20263;-74
2021/05/21 06:59:41;;;;;;;;;;;;;;;20.10;57.45;100346.72;1717462;81;20281;-74
2021/05/21 07:02:08;;;;;;;;;;;;;;;20.29;57.21;100352.52;1724193;81;20290;-74
2021/05/21 07:04:34;;;;;;;;;;;;;;;20.41;57.13;100349.19;1719575;81;20279;-74
2021/05/21 07:07:00;;;;;;;;;;;;;;;20.41;56.81;100340.00;1724214;81;20222;-74
2021/05/21 07:09:26;;;;;;;;;;;;;;;20.41;56.70;100341.31;1718030;81;20235;-74
2021/05/21 07:11:53;;;;;;;;;;;;;;;20.60;56.84;100333.14;1725599;81;20294;-74
2021/05/21 07:14:19;;;;;;;;;;;;;;;21.14;56.88;100328.80;1727062;81;20563;-74
2021/05/21 07:16:47;;;;;;;;;;;;;;;21.75;56.62;100331.37;1723250;81;20279;-74
2021/05/21 07:19:17;;;;;;;;;;;;;;;22.25;56.65;100327.09;1729227;81;20184;-74
2021/05/21 07:21:41;;;;;;;;;;;;;;;22.67;56.32;100327.66;1720105;81;20251;-74
2021/05/21 07:24:08;;;;;;;;;;;;;;;23.06;56.09;100322.66;1728397;81;20285;-74
2021/05/21 07:26:34;;;;;;;;;;;;;;;23.04;55.74;100314.86;1727754;81;20294;-74
2021/05/21 07:29:00;;;;;;;;;;;;;;;23.04;55.72;100318.81;1709938;81;20253;-74
2021/05/21 07:31:27;;;;;;;;;;;;;;;22.90;55.87;100315.48;1725146;81;20492;-74
2021/05/21 07:33:55;;;;;;;;;;;;;;;22.66;55.35;100318.06;1728260;81;20293;-74
2021/05/21 07:36:23;;;;;;;;;;;;;;;22.62;55.33;100315.28;1725820;81;20417;-74
2021/05/21 07:38:50;;;;;;;;;;;;;;;22.78;55.28;100300.94;1715584;81;20173;-74
2021/05/21 07:41:18;;;;;;;;;;;;;;;23.20;55.25;100301.39;1735847;81;20163;-74
2021/05/21 07:43:44;;;;;;;;;;;;;;;23.45;54.75;100295.11;1728499;81;20214;-74
2021/05/21 07:46:14;;;;;;;;;;;;;;;23.51;54.05;100290.70;1722115;81;20182;-74
2021/05/21 07:48:41;;;;;;;;;;;;;;;23.55;54.18;100293.98;1718112;82;20167;-74
2021/05/21 07:51:11;;;;;;;;;;;;;;;23.45;53.71;100292.00;1731364;81;20184;-74
2021/05/21 07:53:37;;;;;;;;;;;;;;;23.30;53.48;100280.45;1722846;81;20167;-74
2021/05/21 07:56:04;;;;;;;;;;;;;;;23.19;53.58;100284.36;1728075;81;20243;-74
2021/05/21 07:58:31;;;;;;;;;;;;;;;23.11;53.42;100277.01;1723256;81;20230;-74
2021/05/21 08:00:57;;;;;;;;;;;;;;;23.19;53.27;100272.48;1716473;81;20307;-74
2021/05/21 08:03:24;;;;;;;;;;;;;;;23.24;53.19;100271.67;1721572;81;20217;-74
2021/05/21 08:05:50;;;;;;;;;;;;;;;23.21;52.76;100266.14;1726764;81;20263;-74
2021/05/21 08:08:20;;;;;;;;;;;;;;;23.21;52.64;100269.26;1692818;83;20340;-74
2021/05/21 08:10:44;;;;;;;;;;;;;;;23.34;52.83;100268.72;1675706;83;20551;-74
2021/05/21 08:13:10;;;;;;;;;;;;;;;23.30;52.16;100260.66;1687610;83;20213;-74
2021/05/21 08:15:36;;;;;;;;;;;;;;;23.27;51.90;100263.05;1661484;85;20445;-74
2021/05/21 08:18:03;;;;;;;;;;;;;;;23.28;52.13;100262.09;1657628;85;20279;-74
2021/05/21 08:20:29;;;;;;;;;;;;;;;23.04;51.45;100254.67;1667768;84;20318;-74
2021/05/21 08:22:55;;;;;;;;;;;;;;;22.82;51.50;100242.72;1719300;81;20218;-74
2021/05/21 08:25:23;;;;;;;;;;;;;;;22.99;51.58;100245.78;1719672;81;20283;-74
2021/05/21 08:27:50;;;;;;;;;;;;;;;23.20;51.13;100244.67;1721345;81;20232;-74
2021/05/21 08:30:17;;;;;;;;;;;;;;;23.35;50.97;100234.78;1713125;82;20269;-74
2021/05/21 08:32:43;;;;;;;;;;;;;;;23.14;50.33;100231.94;1715510;81;20202;-74
2021/05/21 08:35:09;;;;;;;;;;;;;;;22.83;50.45;100229.42;1720434;81;20222;-74
2021/05/21 08:37:35;;;;;;;;;;;;;;;22.59;50.49;100227.21;1717936;82;20172;-74
2021/05/21 08:40:02;;;;;;;;;;;;;;;22.38;50.50;100221.20;1725059;81;22223;-74
2021/05/21 08:42:31;;;;;;;;;;;;;;;22.39;50.65;100218.94;1721990;81;20170;-74
2021/05/21 08:44:57;;;;;;;;;;;;;;;22.40;50.11;100213.19;1714975;81;20259;-74
2021/05/21 08:47:23;;;;;;;;;;;;;;;22.32;50.13;100208.97;1715056;81;20841;-74
2021/05/21 08:49:49;;;;;;;;;;;;;;;22.24;49.62;100211.31;1718525;81;20259;-74
2021/05/21 08:52:16;;;;;;;;;;;;;;;22.35;49.52;100202.17;1723301;81;20285;-74
2021/05/21 08:54:45;;;;;;;;;;;;;;;22.75;49.31;100191.73;1725843;81;20286;-74
2021/05/21 08:57:18;;;;;;;;;;;;;;;23.56;49.28;100196.69;1721398;81;20330;-74
2021/05/21 08:59:41;;;;;;;;;;;;;;;24.24;49.25;100190.44;1720125;81;20270;-74
2021/05/21 09:02:13;;;;;;;;;;;;;;;24.34;48.98;100181.69;1719066;82;20297;-74
2021/05/21 09:04:57;;;;;;;;;;;;;;;24.62;48.81;100184.73;1722620;81;20194;-74
2021/05/21 09:07:24;;;;;;;;;;;;;;;24.31;48.54;100176.66;1712483;82;20151;-74
2021/05/21 09:09:51;;;;;;;;;;;;;;;24.15;48.71;100164.27;1724638;81;20214;-74
2021/05/21 09:12:18;;;;;;;;;;;;;;;23.98;48.42;100165.60;1723181;81;20234;-74
2021/05/21 09:15:06;;;;;;;;;;;;;;;23.73;48.47;100160.11;1713536;81;20215;-74
2021/05/21 09:17:33;;;;;;;;;;;;;;;23.27;48.29;100172.03;1719415;81;20163;-74
2021/05/21 09:20:01;;;;;;;;;;;;;;;23.19;48.25;100152.46;1720983;81;20167;-74
2021/05/21 09:22:27;;;;;;;;;;;;;;;22.87;47.94;100147.83;1697909;81;20178;-74
2021/05/21 09:24:54;;;;;;;;;;;;;;;22.40;47.71;100147.33;1740661;81;20194;-74
2021/05/21 09:27:20;;;;;;;;;;;;;;;22.01;47.59;100140.04;1723193;81;20196;-75
2021/05/21 09:29:52;;;;;;;;;;;;;;;21.84;47.70;100126.34;1715521;82;20221;-74
2021/05/21 09:32:28;;;;;;;;;;;;;;;21.81;47.74;100124.80;1716846;82;20234;-74
2021/05/21 09:35:06;;;;;;;;;;;;;;;21.87;47.56;100129.61;1717669;82;20227;-74
2021/05/21 09:37:35;;;;;;;;;;;;;;;21.78;47.02;100125.86;1715727;82;20186;-74
2021/05/21 09:40:06;;;;;;;;;;;;;;;21.59;46.83;100121.52;1713249;82;20187;-74
2021/05/21 09:42:51;;;;;;;;;;;;;;;21.44;46.68;100122.56;1711412;82;20159;-74
2021/05/21 09:45:23;;;;;;;;;;;;;;;21.43;46.90;100122.20;1711517;83;20175;-74
2021/05/21 09:47:52;;;;;;;;;;;;;;;21.30;46.36;100117.44;1717459;82;20183;-74
2021/05/21 09:50:19;;;;;;;;;;;;;;;20.97;46.25;100118.73;1716332;82;20255;-74
2021/05/21 09:52:48;;;;;;;;;;;;;;;20.85;46.29;100110.83;1714071;82;20232;-74
2021/05/21 09:55:15;;;;;;;;;;;;;;;20.71;46.11;100111.77;1714497;82;20230;-74
2021/05/21 09:57:41;;;;;;;;;;;;;;;20.67;46.37;100103.24;1717615;82;20183;-74
2021/05/21 10:00:11;;;;;;;;;;;;;;;20.71;46.10;100102.57;1713303;82;20262;-74
2021/05/21 10:02:37;;;;;;;;;;;;;;;20.74;46.15;100111.56;1711943;82;20199;-74
2021/05/21 10:05:06;;;;;;;;;;;;;;;20.67;45.84;100099.77;1720317;81;20214;-74
2021/05/21 10:07:32;;;;;;;;;;;;;;;20.65;45.98;100103.81;1711254;82;20147;-74
2021/05/21 10:09:59;;;;;;;;;;;;;;;20.61;45.84;100102.80;1707435;82;20212;-74
2021/05/21 10:12:25;;;;;;;;;;;;;;;20.52;45.44;100086.33;1707912;82;20183;-74
2021/05/21 10:14:53;;;;;;;;;;;;;;;20.44;45.67;100088.14;1710831;82;20250;-74
2021/05/21 10:17:24;;;;;;;;;;;;;;;20.45;45.61;100082.78;1715117;82;20174;-74
2021/05/21 10:19:54;;;;;;;;;;;;;;;20.51;45.61;100081.55;1711427;82;20195;-74
2021/05/21 10:22:38;;;;;;;;;;;;;;;20.58;45.78;100073.64;1716591;82;20218;-74
2021/05/21 10:25:13;;;;;;;;;;;;;;;20.79;45.74;100072.69;1700047;82;20225;-74
2021/05/21 10:27:40;;;;;;;;;;;;;;;20.78;45.14;100071.00;1712339;81;20193;-74
2021/05/21 10:30:08;;;;;;;;;;;;;;;20.57;45.13;100063.23;1730683;81;20157;-74
2021/05/21 10:32:35;;;;;;;;;;;;;;;20.46;45.31;100058.20;1734953;81;20187;-74
2021/05/21 10:35:19;;;;;;;;;;;;;;;20.45;45.22;100058.31;1732770;81;20202;-74
2021/05/21 10:37:46;;;;;;;;;;;;;;;20.48;45.06;100043.19;1719569;81;20233;-74
2021/05/21 10:40:32;;;;;;;;;;;;;;;20.70;45.25;100059.69;1735079;81;20200;-74
2021/05/21 10:42:54;;;;;;;;;;;;;;;20.96;45.16;100046.55;1727943;81;20194;-74
2021/05/21 10:45:24;;;;;;;;;;;;;;;21.12;44.88;100031.42;1725155;81;20173;-74
2021/05/21 10:47:58;;;;;;;;;;;;;;;21.08;44.96;100041.30;1730639;81;20226;-74
2021/05/21 10:50:38;;;;;;;;;;;;;;;21.07;44.68;100026.95;1732923;81;20210;-74
2021/05/21 10:53:13;;;;;;;;;;;;;;;20.82;44.52;100032.56;1733238;81;20221;-74
2021/05/21 10:55:55;;;;;;;;;;;;;;;20.58;44.53;100034.70;1727986;81;20178;-74
2021/05/21 10:58:29;;;;;;;;;;;;;;;20.56;44.85;100030.86;1720635;81;20201;-74
2021/05/21 11:01:12;;;;;;;;;;;;;;;20.65;44.87;100027.63;1740168;81;20546;-74
2021/05/21 11:04:02;;;;;;;;;;;;;;;20.81;44.72;100012.95;1711985;82;20145;-74
2021/05/21 11:06:31;;;;;;;;;;;;;;;21.01;44.82;100004.55;1714249;82;20187;-74
2021/05/21 11:09:02;;;;;;;;;;;;;;;21.18;44.43;99999.44;1705695;82;20172;-74
2021/05/21 11:11:54;;;;;;;;;;;;;;;21.26;44.36;99997.62;1679475;83;20161;-74
2021/05/21 11:14:32;;;;;;;;;;;;;;;21.28;44.27;99990.47;1677018;84;20178;-74
2021/05/21 11:17:01;;;;;;;;;;;;;;;21.42;44.52;99979.79;1675339;84;20209;-74
2021/05/21 11:19:28;;;;;;;;;;;;;;;21.51;44.26;99972.56;1670999;84;20203;-74
2021/05/21 11:22:18;;;;;;;;;;;;;;;21.59;44.03;99970.22;1686660;84;20186;-74
2021/05/21 11:25:01;;;;;;;;;;;;;;;21.56;44.10;99969.13;1674344;85;20553;-74
2021/05/21 11:27:32;;;;;;;;;;;;;;;21.52;44.02;99965.03;1665104;85;20534;-74
2021/05/21 11:30:02;;;;;;;;;;;;;;;21.62;44.11;99954.69;1669497;85;20149;-74
2021/05/21 11:32:28;;;;;;;;;;;;;;;21.63;43.86;99961.16;1671405;85;20210;-74
2021/05/21 11:34:54;;;;;;;;;;;;;;;21.49;43.68;99953.41;1674192;84;20201;-74
2021/05/21 11:37:26;;;;;;;;;;;;;;;21.34;43.77;99950.55;1662528;84;20158;-74
2021/05/21 11:39:53;;;;;;;;;;;;;;;21.29;43.95;99948.76;1672409;85;20178;-74
2021/05/21 11:42:20;;;;;;;;;;;;;;;21.34;43.90;99943.98;1721851;82;20201;-74
2021/05/21 11:44:56;;;;;;;;;;;;;;;21.36;43.74;99936.83;1713297;82;20185;-74
2021/05/21 11:47:27;;;;;;;;;;;;;;;21.28;43.68;99937.41;1734243;81;20165;-74
2021/05/21 11:49:54;;;;;;;;;;;;;;;21.21;43.50;99930.89;1728606;81;20134;-74
2021/05/21 11:52:20;;;;;;;;;;;;;;;21.26;43.78;99926.15;1731944;81;20168;-74
2021/05/21 11:54:46;;;;;;;;;;;;;;;21.42;43.52;99921.92;1717733;81;20171;-74
2021/05/21 11:57:16;;;;;;;;;;;;;;;21.44;43.52;99909.02;1720888;82;20364;-74
2021/05/21 11:59:42;;;;;;;;;;;;;;;21.31;43.12;99917.45;1721939;82;20273;-74
2021/05/21 12:02:14;;;;;;;;;;;;;;;21.14;43.24;99914.68;1715252;82;20651;-74
2021/05/21 12:04:42;;;;;;;;;;;;;;;21.01;43.07;99911.23;1702623;81;20257;-74
2021/05/21 12:07:20;;;;;;;;;;;;;;;20.80;42.78;99903.53;1719896;81;20207;-74
2021/05/21 12:10:04;;;;;;;;;;;;;;;20.63;42.79;99910.45;1723029;81;20554;-74
2021/05/21 12:12:32;;;;;;;;;;;;;;;20.52;42.83;99905.09;1720324;82;20570;-74
2021/05/21 12:15:10;;;;;;;;;;;;;;;20.45;42.64;99900.73;1721980;82;20262;-74
2021/05/21 12:17:52;;;;;;;;;;;;;;;20.45;42.68;99885.81;1717323;82;20669;-74
2021/05/21 12:20:20;;;;;;;;;;;;;;;20.66;42.79;99881.34;1706213;82;20260;-74
2021/05/21 12:23:01;;;;;;;;;;;;;;;20.80;42.71;99878.56;1711834;82;20145;-73
2021/05/21 12:25:30;;;;;;;;;;;;;;;20.79;42.44;99890.90;1648037;84;20503;-73
2021/05/21 12:27:58;;;;;;;;;;;;;;;20.68;42.53;99883.39;1725103;82;20710;-73
2021/05/21 12:30:24;;;;;;;;;;;;;;;20.60;42.45;99881.77;1725122;82;20307;-73
2021/05/21 12:32:51;;;;;;;;;;;;;;;20.54;42.36;99869.89;1714924;82;20217;-73
2021/05/21 12:35:18;;;;;;;;;;;;;;;20.55;42.46;99874.20;1727635;82;20592;-72
2021/05/21 12:37:48;;;;;;;;;;;;;;;20.71;42.65;99860.38;1725794;82;20532;-72
2021/05/21 12:40:16;;;;;;;;;;;;;;;20.85;42.42;99862.48;1720946;82;20167;-72
2021/05/21 12:42:53;;;;;;;;;;;;;;;20.87;42.23;99848.28;1715363;82;20204;-72
2021/05/21 12:45:19;;;;;;;;;;;;;;;20.77;42.09;99844.66;1730804;82;20663;-72